sensor_id;sensor_type;location;lat;lon;timestamp;P1;durP1;ratioP1;P2;durP2;ratioP2
55316;SDS011;41178;48.956;8.130;2023-04-25T00:03:57;4.40;;;4.00;;
55316;SDS011;41178;48.956;8.130;2023-04-25T00:08:59;4.60;;;4.10;;
55316;SDS011;41178;48.956;8.130;2023-04-25T00:14:01;4.57;;;4.03;;
55316;SDS011;41178;48.956;8.130;2023-04-25T00:19:03;4.73;;;3.80;;
55316;SDS011;41178;48.956;8.130;2023-04-25T00:24:06;5.13;;;4.63;;
55316;SDS011;41178;48.956;8.130;2023-04-25T00:34:19;5.13;;;4.63;;
55316;SDS011;41178;48.956;8.130;2023-04-25T00:39:21;5.17;;;4.63;;
55316;SDS011;41178;48.956;8.130;2023-04-25T00:44:23;5.23;;;4.73;;
55316;SDS011;41178;48.956;8.130;2023-04-25T00:49:25;5.10;;;4.60;;
55316;SDS011;41178;48.956;8.130;2023-04-25T00:54:27;5.53;;;4.47;;
55316;SDS011;41178;48.956;8.130;2023-04-25T00:59:29;5.30;;;4.80;;
55316;SDS011;41178;48.956;8.130;2023-04-25T01:04:32;5.70;;;4.90;;
55316;SDS011;41178;48.956;8.130;2023-04-25T01:09:33;4.97;;;4.53;;
55316;SDS011;41178;48.956;8.130;2023-04-25T01:14:36;4.80;;;4.30;;
55316;SDS011;41178;48.956;8.130;2023-04-25T01:19:38;5.10;;;4.60;;
55316;SDS011;41178;48.956;8.130;2023-04-25T01:24:40;5.00;;;4.50;;
55316;SDS011;41178;48.956;8.130;2023-04-25T01:29:41;5.27;;;4.70;;
55316;SDS011;41178;48.956;8.130;2023-04-25T01:34:43;6.07;;;4.80;;
55316;SDS011;41178;48.956;8.130;2023-04-25T01:39:45;4.67;;;4.03;;
55316;SDS011;41178;48.956;8.130;2023-04-25T01:44:47;4.60;;;4.20;;
55316;SDS011;41178;48.956;8.130;2023-04-25T01:49:49;4.57;;;4.17;;
55316;SDS011;41178;48.956;8.130;2023-04-25T01:54:51;4.60;;;4.20;;
55316;SDS011;41178;48.956;8.130;2023-04-25T02:00:00;4.87;;;4.43;;
55316;SDS011;41178;48.956;8.130;2023-04-25T02:05:04;4.60;;;4.20;;
55316;SDS011;41178;48.956;8.130;2023-04-25T02:10:06;5.63;;;4.80;;
55316;SDS011;41178;48.956;8.130;2023-04-25T02:15:08;5.20;;;4.40;;
55316;SDS011;41178;48.956;8.130;2023-04-25T02:20:11;5.20;;;4.70;;
55316;SDS011;41178;48.956;8.130;2023-04-25T02:25:13;5.57;;;4.77;;
55316;SDS011;41178;48.956;8.130;2023-04-25T02:30:14;6.73;;;4.90;;
55316;SDS011;41178;48.956;8.130;2023-04-25T02:35:16;5.03;;;4.50;;
55316;SDS011;41178;48.956;8.130;2023-04-25T02:40:18;5.03;;;4.53;;
55316;SDS011;41178;48.956;8.130;2023-04-25T02:45:20;5.90;;;5.10;;
55316;SDS011;41178;48.956;8.130;2023-04-25T02:50:22;5.30;;;4.80;;
55316;SDS011;41178;48.956;8.130;2023-04-25T02:55:24;6.70;;;4.90;;
55316;SDS011;41178;48.956;8.130;2023-04-25T03:00:28;5.60;;;4.83;;
55316;SDS011;41178;48.956;8.130;2023-04-25T03:05:30;6.80;;;4.53;;
55316;SDS011;41178;48.956;8.130;2023-04-25T03:10:32;5.57;;;4.97;;
55316;SDS011;41178;48.956;8.130;2023-04-25T03:15:34;5.13;;;4.63;;
55316;SDS011;41178;48.956;8.130;2023-04-25T03:20:37;6.10;;;5.23;;
55316;SDS011;41178;48.956;8.130;2023-04-25T03:25:40;6.03;;;5.43;;
55316;SDS011;41178;48.956;8.130;2023-04-25T03:30:42;5.57;;;5.07;;
55316;SDS011;41178;48.956;8.130;2023-04-25T03:35:44;6.10;;;4.70;;
55316;SDS011;41178;48.956;8.130;2023-04-25T03:40:45;5.60;;;5.00;;
55316;SDS011;41178;48.956;8.130;2023-04-25T03:45:47;5.57;;;4.53;;
55316;SDS011;41178;48.956;8.130;2023-04-25T03:50:49;5.90;;;4.80;;
55316;SDS011;41178;48.956;8.130;2023-04-25T03:55:51;5.20;;;4.70;;
55316;SDS011;41178;48.956;8.130;2023-04-25T04:00:53;5.00;;;4.50;;
55316;SDS011;41178;48.956;8.130;2023-04-25T04:05:54;4.57;;;4.17;;
55316;SDS011;41178;48.956;8.130;2023-04-25T04:10:57;5.47;;;4.93;;
55316;SDS011;41178;48.956;8.130;2023-04-25T04:15:59;6.50;;;5.40;;
55316;SDS011;41178;48.956;8.130;2023-04-25T04:21:01;5.03;;;4.53;;
55316;SDS011;41178;48.956;8.130;2023-04-25T04:26:03;5.60;;;5.10;;
55316;SDS011;41178;48.956;8.130;2023-04-25T04:31:05;5.33;;;4.63;;
55316;SDS011;41178;48.956;8.130;2023-04-25T04:36:06;5.43;;;4.70;;
55316;SDS011;41178;48.956;8.130;2023-04-25T04:41:08;4.80;;;4.40;;
55316;SDS011;41178;48.956;8.130;2023-04-25T04:46:10;5.50;;;4.67;;
55316;SDS011;41178;48.956;8.130;2023-04-25T04:51:13;5.77;;;4.60;;
55316;SDS011;41178;48.956;8.130;2023-04-25T04:56:15;6.10;;;4.30;;
55316;SDS011;41178;48.956;8.130;2023-04-25T05:01:17;5.10;;;4.60;;
55316;SDS011;41178;48.956;8.130;2023-04-25T05:06:19;4.80;;;4.33;;
55316;SDS011;41178;48.956;8.130;2023-04-25T05:11:21;5.30;;;4.80;;
55316;SDS011;41178;48.956;8.130;2023-04-25T05:16:23;7.67;;;4.80;;
55316;SDS011;41178;48.956;8.130;2023-04-25T05:21:25;7.20;;;4.53;;
55316;SDS011;41178;48.956;8.130;2023-04-25T05:26:27;6.30;;;5.53;;
55316;SDS011;41178;48.956;8.130;2023-04-25T05:31:32;5.27;;;4.30;;
55316;SDS011;41178;48.956;8.130;2023-04-25T05:36:34;4.80;;;4.30;;
55316;SDS011;41178;48.956;8.130;2023-04-25T05:41:36;7.13;;;4.37;;
55316;SDS011;41178;48.956;8.130;2023-04-25T05:46:37;4.90;;;4.50;;
55316;SDS011;41178;48.956;8.130;2023-04-25T05:51:39;5.30;;;4.77;;
55316;SDS011;41178;48.956;8.130;2023-04-25T05:56:40;5.60;;;5.10;;
55316;SDS011;41178;48.956;8.130;2023-04-25T06:01:42;8.43;;;5.50;;
55316;SDS011;41178;48.956;8.130;2023-04-25T06:06:44;8.97;;;5.30;;
55316;SDS011;41178;48.956;8.130;2023-04-25T06:11:45;6.87;;;5.67;;
55316;SDS011;41178;48.956;8.130;2023-04-25T06:16:47;6.60;;;4.57;;
55316;SDS011;41178;48.956;8.130;2023-04-25T06:21:49;7.40;;;5.73;;
55316;SDS011;41178;48.956;8.130;2023-04-25T06:26:50;10.03;;;6.90;;
55316;SDS011;41178;48.956;8.130;2023-04-25T06:31:52;8.23;;;6.53;;
55316;SDS011;41178;48.956;8.130;2023-04-25T06:36:54;6.57;;;5.87;;
55316;SDS011;41178;48.956;8.130;2023-04-25T06:41:55;7.03;;;5.97;;
55316;SDS011;41178;48.956;8.130;2023-04-25T06:46:57;6.33;;;5.70;;
55316;SDS011;41178;48.956;8.130;2023-04-25T06:51:59;5.23;;;4.73;;
55316;SDS011;41178;48.956;8.130;2023-04-25T06:57:01;5.23;;;4.73;;
55316;SDS011;41178;48.956;8.130;2023-04-25T07:02:03;10.33;;;5.77;;
55316;SDS011;41178;48.956;8.130;2023-04-25T07:07:04;6.20;;;5.60;;
55316;SDS011;41178;48.956;8.130;2023-04-25T07:12:06;7.50;;;5.67;;
55316;SDS011;41178;48.956;8.130;2023-04-25T07:17:08;5.33;;;4.83;;
55316;SDS011;41178;48.956;8.130;2023-04-25T07:22:11;6.00;;;5.40;;
55316;SDS011;41178;48.956;8.130;2023-04-25T07:27:12;5.93;;;5.27;;
55316;SDS011;41178;48.956;8.130;2023-04-25T07:32:14;5.87;;;5.20;;
55316;SDS011;41178;48.956;8.130;2023-04-25T07:37:16;6.47;;;5.70;;
55316;SDS011;41178;48.956;8.130;2023-04-25T07:42:19;7.30;;;6.53;;
55316;SDS011;41178;48.956;8.130;2023-04-25T07:47:22;8.37;;;7.40;;
55316;SDS011;41178;48.956;8.130;2023-04-25T07:52:24;9.67;;;6.33;;
55316;SDS011;41178;48.956;8.130;2023-04-25T07:57:25;9.30;;;6.80;;
55316;SDS011;41178;48.956;8.130;2023-04-25T08:02:27;7.23;;;6.47;;
55316;SDS011;41178;48.956;8.130;2023-04-25T08:07:29;8.33;;;6.47;;
55316;SDS011;41178;48.956;8.130;2023-04-25T08:12:31;8.33;;;6.90;;
55316;SDS011;41178;48.956;8.130;2023-04-25T08:17:33;7.97;;;7.03;;
55316;SDS011;41178;48.956;8.130;2023-04-25T08:22:34;7.73;;;6.30;;
55316;SDS011;41178;48.956;8.130;2023-04-25T08:27:36;7.00;;;6.30;;
55316;SDS011;41178;48.956;8.130;2023-04-25T08:32:38;8.73;;;6.63;;
55316;SDS011;41178;48.956;8.130;2023-04-25T08:37:40;8.67;;;5.50;;
55316;SDS011;41178;48.956;8.130;2023-04-25T08:42:42;8.30;;;7.33;;
55316;SDS011;41178;48.956;8.130;2023-04-25T08:47:44;8.13;;;6.17;;
55316;SDS011;41178;48.956;8.130;2023-04-25T08:52:47;6.40;;;5.70;;
55316;SDS011;41178;48.956;8.130;2023-04-25T08:57:51;6.20;;;4.93;;
55316;SDS011;41178;48.956;8.130;2023-04-25T09:02:56;6.93;;;4.83;;
55316;SDS011;41178;48.956;8.130;2023-04-25T09:08:00;5.70;;;5.13;;
55316;SDS011;41178;48.956;8.130;2023-04-25T09:13:35;6.57;;;5.97;;
55316;SDS011;41178;48.956;8.130;2023-04-25T09:18:31;6.10;;;5.13;;
55316;SDS011;41178;48.956;8.130;2023-04-25T09:28:42;6.50;;;5.90;;
55316;SDS011;41178;48.956;8.130;2023-04-25T09:33:44;6.90;;;6.20;;
55316;SDS011;41178;48.956;8.130;2023-04-25T09:38:47;5.97;;;5.40;;
55316;SDS011;41178;48.956;8.130;2023-04-25T09:43:49;5.30;;;4.80;;
55316;SDS011;41178;48.956;8.130;2023-04-25T09:48:51;5.57;;;4.97;;
55316;SDS011;41178;48.956;8.130;2023-04-25T09:53:55;5.40;;;4.90;;
55316;SDS011;41178;48.956;8.130;2023-04-25T09:58:57;5.40;;;4.90;;
55316;SDS011;41178;48.956;8.130;2023-04-25T10:03:59;5.60;;;5.10;;
55316;SDS011;41178;48.956;8.130;2023-04-25T10:09:03;5.40;;;4.87;;
55316;SDS011;41178;48.956;8.130;2023-04-25T10:14:05;5.03;;;4.63;;
55316;SDS011;41178;48.956;8.130;2023-04-25T10:19:07;4.53;;;4.13;;
55316;SDS011;41178;48.956;8.130;2023-04-25T10:24:09;4.37;;;4.00;;
55316;SDS011;41178;48.956;8.130;2023-04-25T10:29:11;5.40;;;4.73;;
55316;SDS011;41178;48.956;8.130;2023-04-25T10:34:13;3.70;;;3.40;;
55316;SDS011;41178;48.956;8.130;2023-04-25T10:39:15;5.13;;;3.80;;
55316;SDS011;41178;48.956;8.130;2023-04-25T10:44:27;3.70;;;3.13;;
55316;SDS011;41178;48.956;8.130;2023-04-25T10:49:36;3.17;;;2.83;;
55316;SDS011;41178;48.956;8.130;2023-04-25T10:54:53;3.00;;;2.80;;
55316;SDS011;41178;48.956;8.130;2023-04-25T11:00:04;4.33;;;3.27;;
55316;SDS011;41178;48.956;8.130;2023-04-25T11:12:08;4.90;;;4.50;;
55316;SDS011;41178;48.956;8.130;2023-04-25T11:17:10;5.03;;;4.50;;
55316;SDS011;41178;48.956;8.130;2023-04-25T11:22:12;4.97;;;4.27;;
55316;SDS011;41178;48.956;8.130;2023-04-25T11:27:14;5.27;;;4.50;;
55316;SDS011;41178;48.956;8.130;2023-04-25T11:32:17;9.23;;;6.77;;
55316;SDS011;41178;48.956;8.130;2023-04-25T11:37:21;7.93;;;6.07;;
55316;SDS011;41178;48.956;8.130;2023-04-25T11:42:23;7.97;;;6.67;;
55316;SDS011;41178;48.956;8.130;2023-04-25T11:47:31;7.90;;;6.73;;
55316;SDS011;41178;48.956;8.130;2023-04-25T11:57:47;6.00;;;5.37;;
55316;SDS011;41178;48.956;8.130;2023-04-25T12:02:54;6.57;;;5.43;;
55316;SDS011;41178;48.956;8.130;2023-04-25T12:08:09;4.87;;;4.43;;
55316;SDS011;41178;48.956;8.130;2023-04-25T12:13:32;3.93;;;3.63;;
55316;SDS011;41178;48.956;8.130;2023-04-25T12:18:35;4.70;;;4.30;;
55316;SDS011;41178;48.956;8.130;2023-04-25T12:23:38;4.77;;;4.33;;
55316;SDS011;41178;48.956;8.130;2023-04-25T12:28:44;3.93;;;3.57;;
55316;SDS011;41178;48.956;8.130;2023-04-25T12:33:46;3.27;;;3.07;;
55316;SDS011;41178;48.956;8.130;2023-04-25T12:38:49;2.87;;;2.67;;
55316;SDS011;41178;48.956;8.130;2023-04-25T12:43:51;3.07;;;2.87;;
55316;SDS011;41178;48.956;8.130;2023-04-25T12:48:52;3.07;;;2.80;;
55316;SDS011;41178;48.956;8.130;2023-04-25T12:53:55;3.07;;;2.83;;
55316;SDS011;41178;48.956;8.130;2023-04-25T12:58:57;3.40;;;3.10;;
55316;SDS011;41178;48.956;8.130;2023-04-25T13:03:59;3.70;;;3.40;;
55316;SDS011;41178;48.956;8.130;2023-04-25T13:09:01;5.37;;;4.80;;
55316;SDS011;41178;48.956;8.130;2023-04-25T13:14:04;5.20;;;4.60;;
55316;SDS011;41178;48.956;8.130;2023-04-25T13:19:06;6.60;;;4.90;;
55316;SDS011;41178;48.956;8.130;2023-04-25T13:24:09;4.70;;;4.30;;
55316;SDS011;41178;48.956;8.130;2023-04-25T13:29:11;5.03;;;4.10;;
55316;SDS011;41178;48.956;8.130;2023-04-25T13:34:12;4.20;;;3.57;;
55316;SDS011;41178;48.956;8.130;2023-04-25T13:39:14;4.23;;;3.80;;
55316;SDS011;41178;48.956;8.130;2023-04-25T13:44:16;4.20;;;3.70;;
55316;SDS011;41178;48.956;8.130;2023-04-25T13:49:17;4.47;;;3.47;;
55316;SDS011;41178;48.956;8.130;2023-04-25T13:54:19;3.53;;;3.23;;
55316;SDS011;41178;48.956;8.130;2023-04-25T13:59:21;3.90;;;3.60;;
55316;SDS011;41178;48.956;8.130;2023-04-25T14:04:22;3.73;;;3.43;;
55316;SDS011;41178;48.956;8.130;2023-04-25T14:09:24;5.60;;;3.70;;
55316;SDS011;41178;48.956;8.130;2023-04-25T14:14:28;5.70;;;4.40;;
55316;SDS011;41178;48.956;8.130;2023-04-25T14:19:30;4.60;;;4.20;;
55316;SDS011;41178;48.956;8.130;2023-04-25T14:24:31;4.07;;;3.67;;
55316;SDS011;41178;48.956;8.130;2023-04-25T14:29:33;4.20;;;3.80;;
55316;SDS011;41178;48.956;8.130;2023-04-25T14:34:35;4.53;;;4.13;;
55316;SDS011;41178;48.956;8.130;2023-04-25T14:39:37;5.13;;;4.30;;
55316;SDS011;41178;48.956;8.130;2023-04-25T14:44:39;4.97;;;4.47;;
55316;SDS011;41178;48.956;8.130;2023-04-25T14:49:40;6.43;;;4.50;;
55316;SDS011;41178;48.956;8.130;2023-04-25T14:54:42;3.90;;;3.60;;
55316;SDS011;41178;48.956;8.130;2023-04-25T14:59:44;6.03;;;4.20;;
55316;SDS011;41178;48.956;8.130;2023-04-25T15:04:46;7.60;;;3.80;;
55316;SDS011;41178;48.956;8.130;2023-04-25T15:09:49;5.10;;;4.40;;
55316;SDS011;41178;48.956;8.130;2023-04-25T15:14:50;5.10;;;4.17;;
55316;SDS011;41178;48.956;8.130;2023-04-25T15:19:52;5.27;;;3.80;;
55316;SDS011;41178;48.956;8.130;2023-04-25T15:24:56;4.63;;;3.87;;
55316;SDS011;41178;48.956;8.130;2023-04-25T15:29:58;5.13;;;4.27;;
55316;SDS011;41178;48.956;8.130;2023-04-25T15:35:01;4.83;;;4.17;;
55316;SDS011;41178;48.956;8.130;2023-04-25T15:45:12;5.23;;;4.50;;
55316;SDS011;41178;48.956;8.130;2023-04-25T15:50:15;4.23;;;3.83;;
55316;SDS011;41178;48.956;8.130;2023-04-25T15:55:17;3.37;;;3.07;;
55316;SDS011;41178;48.956;8.130;2023-04-25T16:00:19;3.70;;;3.40;;
55316;SDS011;41178;48.956;8.130;2023-04-25T16:05:22;4.40;;;4.00;;
55316;SDS011;41178;48.956;8.130;2023-04-25T16:10:24;3.20;;;3.00;;
55316;SDS011;41178;48.956;8.130;2023-04-25T16:15:26;3.50;;;3.20;;
55316;SDS011;41178;48.956;8.130;2023-04-25T16:20:28;2.90;;;2.70;;
55316;SDS011;41178;48.956;8.130;2023-04-25T16:25:30;2.80;;;2.60;;
55316;SDS011;41178;48.956;8.130;2023-04-25T16:30:31;3.10;;;2.90;;
55316;SDS011;41178;48.956;8.130;2023-04-25T16:35:33;3.03;;;2.70;;
55316;SDS011;41178;48.956;8.130;2023-04-25T16:40:35;3.73;;;3.43;;
55316;SDS011;41178;48.956;8.130;2023-04-25T16:45:36;3.03;;;2.80;;
55316;SDS011;41178;48.956;8.130;2023-04-25T16:50:38;3.23;;;2.90;;
55316;SDS011;41178;48.956;8.130;2023-04-25T16:55:40;3.90;;;3.60;;
55316;SDS011;41178;48.956;8.130;2023-04-25T17:00:41;3.73;;;3.30;;
55316;SDS011;41178;48.956;8.130;2023-04-25T17:05:43;4.17;;;3.80;;
55316;SDS011;41178;48.956;8.130;2023-04-25T17:10:45;5.07;;;4.00;;
55316;SDS011;41178;48.956;8.130;2023-04-25T17:15:47;4.93;;;4.43;;
55316;SDS011;41178;48.956;8.130;2023-04-25T17:20:48;6.70;;;4.60;;
55316;SDS011;41178;48.956;8.130;2023-04-25T17:25:50;4.43;;;4.03;;
55316;SDS011;41178;48.956;8.130;2023-04-25T17:30:52;4.33;;;3.93;;
55316;SDS011;41178;48.956;8.130;2023-04-25T17:35:53;7.70;;;3.50;;
55316;SDS011;41178;48.956;8.130;2023-04-25T17:40:55;4.10;;;3.70;;
55316;SDS011;41178;48.956;8.130;2023-04-25T17:45:57;3.60;;;3.30;;
55316;SDS011;41178;48.956;8.130;2023-04-25T17:50:59;4.17;;;3.77;;
55316;SDS011;41178;48.956;8.130;2023-04-25T17:56:01;3.77;;;3.47;;
55316;SDS011;41178;48.956;8.130;2023-04-25T18:01:07;4.40;;;4.00;;
55316;SDS011;41178;48.956;8.130;2023-04-25T18:06:09;5.57;;;5.07;;
55316;SDS011;41178;48.956;8.130;2023-04-25T18:11:12;5.73;;;4.70;;
55316;SDS011;41178;48.956;8.130;2023-04-25T18:16:14;11.87;;;5.50;;
55316;SDS011;41178;48.956;8.130;2023-04-25T18:21:16;5.93;;;4.67;;
55316;SDS011;41178;48.956;8.130;2023-04-25T18:26:17;8.40;;;4.73;;
55316;SDS011;41178;48.956;8.130;2023-04-25T18:31:20;5.13;;;4.63;;
55316;SDS011;41178;48.956;8.130;2023-04-25T18:36:25;5.30;;;4.80;;
55316;SDS011;41178;48.956;8.130;2023-04-25T18:41:27;7.57;;;4.90;;
55316;SDS011;41178;48.956;8.130;2023-04-25T18:46:49;5.23;;;4.43;;
55316;SDS011;41178;48.956;8.130;2023-04-25T18:51:51;6.07;;;4.77;;
55316;SDS011;41178;48.956;8.130;2023-04-25T18:56:54;5.23;;;4.70;;
55316;SDS011;41178;48.956;8.130;2023-04-25T19:01:57;6.43;;;5.80;;
55316;SDS011;41178;48.956;8.130;2023-04-25T19:07:02;6.27;;;5.43;;
55316;SDS011;41178;48.956;8.130;2023-04-25T19:12:04;5.60;;;5.10;;
55316;SDS011;41178;48.956;8.130;2023-04-25T19:17:06;11.57;;;8.03;;
55316;SDS011;41178;48.956;8.130;2023-04-25T19:22:08;6.80;;;4.70;;
55316;SDS011;41178;48.956;8.130;2023-04-25T19:27:10;5.27;;;4.70;;
55316;SDS011;41178;48.956;8.130;2023-04-25T19:32:12;5.33;;;4.83;;
55316;SDS011;41178;48.956;8.130;2023-04-25T19:37:14;5.97;;;5.20;;
55316;SDS011;41178;48.956;8.130;2023-04-25T19:42:17;5.33;;;4.83;;
55316;SDS011;41178;48.956;8.130;2023-04-25T19:47:19;5.77;;;5.17;;
55316;SDS011;41178;48.956;8.130;2023-04-25T19:52:21;6.23;;;5.57;;
55316;SDS011;41178;48.956;8.130;2023-04-25T19:57:22;7.67;;;5.83;;
55316;SDS011;41178;48.956;8.130;2023-04-25T20:02:26;6.83;;;6.00;;
55316;SDS011;41178;48.956;8.130;2023-04-25T20:07:28;7.20;;;5.50;;
55316;SDS011;41178;48.956;8.130;2023-04-25T20:12:30;6.83;;;6.13;;
55316;SDS011;41178;48.956;8.130;2023-04-25T20:17:32;10.10;;;6.97;;
55316;SDS011;41178;48.956;8.130;2023-04-25T20:22:34;8.27;;;7.00;;
55316;SDS011;41178;48.956;8.130;2023-04-25T20:27:40;8.80;;;6.80;;
55316;SDS011;41178;48.956;8.130;2023-04-25T20:32:42;8.57;;;6.30;;
55316;SDS011;41178;48.956;8.130;2023-04-25T20:37:44;6.70;;;6.00;;
55316;SDS011;41178;48.956;8.130;2023-04-25T20:42:46;5.83;;;5.23;;
55316;SDS011;41178;48.956;8.130;2023-04-25T20:47:48;7.73;;;6.93;;
55316;SDS011;41178;48.956;8.130;2023-04-25T20:52:50;7.37;;;6.57;;
55316;SDS011;41178;48.956;8.130;2023-04-25T20:57:52;8.10;;;5.33;;
55316;SDS011;41178;48.956;8.130;2023-04-25T21:02:54;6.93;;;5.50;;
55316;SDS011;41178;48.956;8.130;2023-04-25T21:07:58;8.57;;;5.77;;
55316;SDS011;41178;48.956;8.130;2023-04-25T21:12:59;6.33;;;5.53;;
55316;SDS011;41178;48.956;8.130;2023-04-25T21:18:02;6.03;;;5.30;;
55316;SDS011;41178;48.956;8.130;2023-04-25T21:23:04;7.30;;;4.93;;
55316;SDS011;41178;48.956;8.130;2023-04-25T21:28:06;6.23;;;5.63;;
55316;SDS011;41178;48.956;8.130;2023-04-25T21:33:08;6.47;;;5.50;;
55316;SDS011;41178;48.956;8.130;2023-04-25T21:38:09;6.40;;;5.43;;
55316;SDS011;41178;48.956;8.130;2023-04-25T21:43:12;6.17;;;4.33;;
55316;SDS011;41178;48.956;8.130;2023-04-25T21:48:14;5.53;;;4.93;;
55316;SDS011;41178;48.956;8.130;2023-04-25T21:53:15;5.37;;;4.73;;
55316;SDS011;41178;48.956;8.130;2023-04-25T21:58:17;6.37;;;5.60;;
55316;SDS011;41178;48.956;8.130;2023-04-25T22:03:19;6.20;;;4.97;;
55316;SDS011;41178;48.956;8.130;2023-04-25T22:08:21;5.37;;;4.60;;
55316;SDS011;41178;48.956;8.130;2023-04-25T22:13:23;6.30;;;5.70;;
55316;SDS011;41178;48.956;8.130;2023-04-25T22:18:26;5.70;;;5.17;;
55316;SDS011;41178;48.956;8.130;2023-04-25T22:23:27;5.70;;;4.70;;
55316;SDS011;41178;48.956;8.130;2023-04-25T22:28:29;6.20;;;4.70;;
55316;SDS011;41178;48.956;8.130;2023-04-25T22:33:31;5.83;;;5.23;;
55316;SDS011;41178;48.956;8.130;2023-04-25T22:38:33;6.37;;;5.77;;
55316;SDS011;41178;48.956;8.130;2023-04-25T22:43:38;6.07;;;5.47;;
55316;SDS011;41178;48.956;8.130;2023-04-25T22:48:40;6.40;;;5.80;;
55316;SDS011;41178;48.956;8.130;2023-04-25T22:53:41;7.60;;;5.43;;
55316;SDS011;41178;48.956;8.130;2023-04-25T22:58:43;6.30;;;5.73;;
55316;SDS011;41178;48.956;8.130;2023-04-25T23:03:45;7.50;;;5.43;;
55316;SDS011;41178;48.956;8.130;2023-04-25T23:08:47;6.27;;;5.60;;
55316;SDS011;41178;48.956;8.130;2023-04-25T23:13:48;6.97;;;6.13;;
55316;SDS011;41178;48.956;8.130;2023-04-25T23:18:50;6.80;;;6.00;;
55316;SDS011;41178;48.956;8.130;2023-04-25T23:23:53;6.97;;;5.93;;
55316;SDS011;41178;48.956;8.130;2023-04-25T23:28:54;7.03;;;5.77;;
55316;SDS011;41178;48.956;8.130;2023-04-25T23:33:56;6.83;;;6.00;;
55316;SDS011;41178;48.956;8.130;2023-04-25T23:38:58;7.93;;;6.37;;
55316;SDS011;41178;48.956;8.130;2023-04-25T23:44:02;7.63;;;5.83;;
55316;SDS011;41178;48.956;8.130;2023-04-25T23:49:03;7.50;;;6.60;;
55316;SDS011;41178;48.956;8.130;2023-04-25T23:54:05;7.67;;;6.87;;
55316;SDS011;41178;48.956;8.130;2023-04-25T23:59:07;8.60;;;6.37;;
